createdAt,value
2018-07-29T00:05:06.346Z,14
2018-07-29T00:15:12.625Z,16
2018-07-29T00:25:11.477Z,14
2018-07-29T00:35:06.165Z,17
2018-07-29T00:45:06.157Z,15
2018-07-29T00:55:06.199Z,17
2018-07-29T01:05:16.493Z,16
2018-07-29T01:15:07.515Z,12
2018-07-29T01:25:06.232Z,10
2018-07-29T01:35:19.208Z,12
2018-07-29T01:45:06.266Z,13
2018-07-29T01:55:09.497Z,17
2018-07-29T02:05:06.399Z,12
2018-07-29T02:15:09.624Z,21
2018-07-29T02:25:06.286Z,23
2018-07-29T02:35:08.387Z,18
2018-07-29T02:45:06.302Z,16
2018-07-29T02:55:06.330Z,17
2018-07-29T03:05:07.329Z,18
2018-07-29T03:15:12.596Z,19
2018-07-29T03:25:13.197Z,17
2018-07-29T03:35:24.606Z,17
2018-07-29T03:45:06.319Z,17
2018-07-29T03:55:12.762Z,17
2018-07-29T04:05:06.436Z,15
2018-07-29T04:15:06.366Z,17
2018-07-29T04:25:09.462Z,11
2018-07-29T04:35:06.391Z,12
2018-07-29T04:45:06.440Z,11
2018-07-29T04:55:13.741Z,12
2018-07-29T05:05:09.604Z,7
2018-07-29T05:15:08.511Z,17
2018-07-29T05:25:07.531Z,7
2018-07-29T05:35:08.492Z,9
2018-07-29T05:45:06.413Z,7
2018-07-29T05:55:06.369Z,6
2018-07-29T06:05:06.359Z,10
2018-07-29T06:15:06.376Z,7
2018-07-29T06:25:06.408Z,7
2018-07-29T06:35:06.440Z,8
2018-07-29T06:45:06.370Z,8
2018-07-29T06:55:06.400Z,8
2018-07-29T07:05:06.394Z,4
2018-07-29T07:15:06.452Z,6
2018-07-29T07:25:06.446Z,4
2018-07-29T07:35:06.463Z,6
2018-07-29T07:45:06.452Z,4
2018-07-29T07:55:06.415Z,4
2018-07-29T08:05:06.641Z,3
2018-07-29T08:15:06.443Z,3
2018-07-29T08:25:06.460Z,4
2018-07-29T08:35:06.452Z,3
2018-07-29T08:45:06.518Z,4
2018-07-29T08:55:06.507Z,4
2018-07-29T09:05:06.413Z,4
2018-07-29T09:15:06.436Z,4
2018-07-29T09:25:06.445Z,4
2018-07-29T09:35:06.480Z,4
2018-07-29T09:45:06.472Z,3
2018-07-29T09:55:06.566Z,4
2018-07-29T10:05:06.531Z,4
2018-07-29T10:15:06.540Z,6
2018-07-29T10:25:06.622Z,3
2018-07-29T10:35:07.151Z,5
2018-07-29T10:45:06.479Z,4
2018-07-29T10:55:06.506Z,7
2018-07-29T11:05:06.541Z,3
2018-07-29T11:15:06.492Z,3
2018-07-29T11:25:06.536Z,2
2018-07-29T11:35:06.540Z,3
2018-07-29T11:45:06.572Z,3
2018-07-29T11:55:06.509Z,3
2018-07-29T12:05:06.497Z,2
2018-07-29T12:15:06.527Z,4
2018-07-29T12:25:06.546Z,3
2018-07-29T12:35:06.566Z,2
2018-07-29T12:45:06.559Z,2
2018-07-29T12:55:06.635Z,2
2018-07-29T13:05:06.550Z,3
2018-07-29T13:15:06.556Z,2
2018-07-29T13:25:06.680Z,3
2018-07-29T13:35:06.560Z,3
2018-07-29T13:45:06.804Z,3
2018-07-29T13:55:06.530Z,3
2018-07-29T14:05:06.535Z,3
2018-07-29T14:15:06.696Z,3
2018-07-29T14:25:06.550Z,3
2018-07-29T14:35:06.917Z,3
2018-07-29T14:45:06.617Z,4
2018-07-29T14:55:06.688Z,7
2018-07-29T15:05:06.574Z,4
2018-07-29T15:15:07.110Z,3
2018-07-29T15:25:06.948Z,3
2018-07-29T15:35:06.731Z,7
2018-07-29T15:45:20.912Z,2
2018-07-29T15:55:08.430Z,2
2018-07-29T16:05:11.939Z,2
2018-07-29T16:15:07.035Z,5
2018-07-29T16:25:07.863Z,2
2018-07-29T16:35:08.115Z,3
2018-07-29T16:45:06.923Z,3
2018-07-29T16:55:10.569Z,3
2018-07-29T17:05:08.015Z,3
2018-07-29T17:15:08.719Z,2
2018-07-29T17:25:07.814Z,3
2018-07-29T17:35:07.951Z,4
2018-07-29T17:45:07.113Z,3
2018-07-29T17:55:23.947Z,4
2018-07-29T18:05:11.616Z,3
2018-07-29T18:15:06.888Z,3
2018-07-29T18:25:22.022Z,7
2018-07-29T18:35:08.738Z,4
2018-07-29T18:45:28.269Z,3
2018-07-29T18:55:06.669Z,3
2018-07-29T19:05:06.651Z,4
2018-07-29T19:15:07.883Z,3
2018-07-29T19:25:14.150Z,3
2018-07-29T19:35:06.992Z,3
2018-07-29T19:45:06.792Z,4
2018-07-29T19:55:06.927Z,3
2018-07-29T20:05:07.248Z,4
2018-07-29T20:15:07.789Z,3
2018-07-29T20:25:06.748Z,3
2018-07-29T20:35:06.691Z,6
2018-07-29T20:45:07.286Z,5
2018-07-29T20:55:09.718Z,4
2018-07-29T21:05:23.106Z,3
2018-07-29T21:15:35.821Z,3
2018-07-29T21:25:07.239Z,4
2018-07-29T21:35:07.509Z,4
2018-07-29T21:45:06.723Z,6
2018-07-29T21:55:06.708Z,3
2018-07-29T22:05:06.733Z,4
2018-07-29T22:15:06.731Z,5
2018-07-29T22:25:06.706Z,4
2018-07-29T22:35:06.656Z,3
2018-07-29T22:45:07.622Z,3
2018-07-29T22:55:07.034Z,3
2018-07-29T23:05:06.675Z,3
2018-07-29T23:15:06.744Z,8
2018-07-29T23:25:06.661Z,4
2018-07-29T23:35:06.699Z,3
2018-07-29T23:45:06.702Z,5
2018-07-29T23:55:06.794Z,3
